createdAt,value
2023-05-23T00:02:08.902Z,90.90
2023-05-23T00:04:37.789Z,90.50
2023-05-23T00:07:07.474Z,90.50
2023-05-23T00:09:35.614Z,91.00
2023-05-23T00:12:04.176Z,90.80
2023-05-23T00:14:34.048Z,90.30
2023-05-23T00:17:02.742Z,90.50
2023-05-23T00:19:31.076Z,91.00
2023-05-23T00:21:59.327Z,90.10
2023-05-23T00:24:28.786Z,90.60
2023-05-23T00:26:58.942Z,90.10
2023-05-23T00:29:27.004Z,90.20
2023-05-23T00:31:55.111Z,90.60
2023-05-23T00:34:23.170Z,90.80
2023-05-23T00:36:51.426Z,90.60
2023-05-23T00:39:20.512Z,90.80
2023-05-23T00:41:52.986Z,91.40
2023-05-23T00:44:22.330Z,91.30
2023-05-23T00:46:54.607Z,90.60
2023-05-23T00:49:23.379Z,90.60
2023-05-23T00:51:52.185Z,90.30
2023-05-23T00:54:25.092Z,88.90
2023-05-23T00:56:55.074Z,88.20
2023-05-23T00:59:24.372Z,89.20
2023-05-23T01:01:53.171Z,90.10
2023-05-23T01:04:21.501Z,90.40
2023-05-23T01:06:49.632Z,90.40
2023-05-23T01:09:18.858Z,90.80
2023-05-23T01:11:53.451Z,90.50
2023-05-23T01:14:30.175Z,91.00
2023-05-23T01:17:04.207Z,90.80
2023-05-23T01:20:04.941Z,90.60
2023-05-23T01:22:49.379Z,90.60
2023-05-23T01:25:29.134Z,94.70
2023-05-23T01:28:01.966Z,91.20
2023-05-23T01:30:33.544Z,90.60
2023-05-23T01:33:02.313Z,90.90
2023-05-23T01:35:31.345Z,96.20
2023-05-23T01:37:59.554Z,90.50
2023-05-23T01:42:59.064Z,89.80
2023-05-23T01:45:29.092Z,96.20
2023-05-23T01:47:58.335Z,90.10
2023-05-23T01:50:27.529Z,89.00
2023-05-23T01:52:57.110Z,87.90
2023-05-23T01:55:27.493Z,94.90
2023-05-23T01:57:58.504Z,87.90
2023-05-23T02:00:26.806Z,88.00
2023-05-23T02:02:55.092Z,87.90
2023-05-23T02:05:23.307Z,94.30
2023-05-23T02:07:51.406Z,90.10
2023-05-23T02:10:20.178Z,90.50
2023-05-23T02:12:48.318Z,90.70
2023-05-23T02:15:18.072Z,95.80
2023-05-23T02:17:46.296Z,91.60
2023-05-23T02:20:14.522Z,92.40
2023-05-23T02:22:42.591Z,92.20
2023-05-23T02:25:10.910Z,91.60
2023-05-23T02:27:38.989Z,91.10
2023-05-23T02:30:09.196Z,91.20
2023-05-23T02:32:38.687Z,90.70
2023-05-23T02:35:07.519Z,90.80
2023-05-23T02:37:35.620Z,90.50
2023-05-23T02:40:04.548Z,90.90
2023-05-23T02:42:32.666Z,90.50
2023-05-23T02:45:00.791Z,90.40
2023-05-23T02:47:28.954Z,90.60
2023-05-23T02:49:58.473Z,92.20
2023-05-23T02:52:26.813Z,92.30
2023-05-23T02:54:55.025Z,92.70
2023-05-23T02:57:23.095Z,93.10
2023-05-23T02:59:51.281Z,93.70
2023-05-23T03:02:19.452Z,93.70
2023-05-23T03:04:48.231Z,93.40
2023-05-23T03:07:27.446Z,92.40
2023-05-23T03:09:56.489Z,92.50
2023-05-23T03:14:52.996Z,91.40
2023-05-23T03:17:21.146Z,90.90
2023-05-23T03:19:49.277Z,91.00
2023-05-23T03:22:18.719Z,90.70
2023-05-23T03:24:46.776Z,91.50
2023-05-23T03:27:14.932Z,91.70
2023-05-23T03:29:42.976Z,92.90
2023-05-23T03:32:11.216Z,93.30
2023-05-23T03:34:39.414Z,93.40
2023-05-23T03:37:07.465Z,93.40
2023-05-23T03:39:39.349Z,93.80
2023-05-23T03:42:08.182Z,93.80
2023-05-23T03:44:36.274Z,94.10
2023-05-23T03:47:04.362Z,93.60
2023-05-23T03:49:32.424Z,93.80
2023-05-23T03:52:00.497Z,92.90
2023-05-23T03:54:28.575Z,92.80
2023-05-23T03:56:57.979Z,93.10
2023-05-23T03:59:26.015Z,92.90
2023-05-23T04:04:25.122Z,93.10
2023-05-23T04:06:53.302Z,93.50
2023-05-23T04:09:21.334Z,93.40
2023-05-23T04:11:49.722Z,93.20
2023-05-23T04:14:20.239Z,93.50
2023-05-23T04:16:48.287Z,92.80
2023-05-23T04:19:17.330Z,92.90
2023-05-23T04:21:45.434Z,92.40
2023-05-23T04:24:13.513Z,92.50
2023-05-23T04:26:42.949Z,91.60
2023-05-23T04:29:12.242Z,91.60
2023-05-23T04:31:42.154Z,91.80
2023-05-23T04:36:40.341Z,91.60
2023-05-23T04:39:08.483Z,91.80
2023-05-23T04:41:36.625Z,91.60
2023-05-23T04:44:06.214Z,92.20
2023-05-23T04:46:34.492Z,92.00
2023-05-23T04:49:04.169Z,92.10
2023-05-23T04:51:32.245Z,91.40
2023-05-23T04:54:00.508Z,92.30
2023-05-23T04:56:29.333Z,91.50
2023-05-23T04:58:57.423Z,91.30
2023-05-23T05:01:25.807Z,90.70
2023-05-23T05:03:54.084Z,90.10
2023-05-23T05:06:24.193Z,90.30
2023-05-23T05:08:52.549Z,90.80
2023-05-23T05:11:20.667Z,91.00
2023-05-23T05:13:48.768Z,90.20
2023-05-23T05:16:16.886Z,90.30
2023-05-23T05:18:45.021Z,90.60
2023-05-23T05:21:13.149Z,91.20
2023-05-23T05:23:43.632Z,91.00
2023-05-23T05:26:11.965Z,91.20
2023-05-23T05:28:41.144Z,91.30
2023-05-23T05:31:10.164Z,91.40
2023-05-23T05:33:38.396Z,90.70
2023-05-23T05:36:08.042Z,89.60
2023-05-23T05:38:36.088Z,89.80
2023-05-23T05:41:08.057Z,89.10
2023-05-23T05:43:37.138Z,89.70
2023-05-23T05:46:05.478Z,88.80
2023-05-23T05:48:33.719Z,90.00
2023-05-23T05:51:03.284Z,89.30
2023-05-23T05:53:31.369Z,90.20
2023-05-23T05:55:59.495Z,97.00
2023-05-23T05:58:28.886Z,88.80
2023-05-23T06:00:57.028Z,87.90
2023-05-23T06:03:25.606Z,86.00
2023-05-23T06:05:53.835Z,94.90
2023-05-23T06:08:21.944Z,88.50
2023-05-23T06:10:50.044Z,89.40
2023-05-23T06:13:18.189Z,88.20
2023-05-23T06:15:47.715Z,95.90
2023-05-23T06:18:15.878Z,86.40
2023-05-23T06:20:43.985Z,85.00
2023-05-23T06:23:12.084Z,85.80
2023-05-23T06:25:40.170Z,85.20
2023-05-23T06:28:08.318Z,84.10
2023-05-23T06:30:38.652Z,84.20
2023-05-23T06:33:08.330Z,81.70
2023-05-23T06:35:36.491Z,84.10
2023-05-23T06:38:04.584Z,87.20
2023-05-23T06:40:32.664Z,87.10
2023-05-23T06:43:00.901Z,79.40
2023-05-23T06:45:29.035Z,79.70
2023-05-23T06:47:57.235Z,85.40
2023-05-23T06:50:26.736Z,80.10
2023-05-23T06:52:54.793Z,78.70
2023-05-23T06:57:52.275Z,75.70
2023-05-23T07:00:21.033Z,75.60
2023-05-23T07:02:49.669Z,76.50
2023-05-23T07:07:48.394Z,74.10
2023-05-23T07:12:44.863Z,74.10
2023-05-23T07:15:13.654Z,71.60
2023-05-23T07:17:42.046Z,71.70
2023-05-23T07:22:39.093Z,74.70
2023-05-23T07:25:09.834Z,72.30
2023-05-23T07:30:09.534Z,69.00
2023-05-23T07:32:37.693Z,71.30
2023-05-23T07:35:06.622Z,72.80
2023-05-23T07:37:34.851Z,73.70
2023-05-23T07:40:02.984Z,71.10
2023-05-23T07:42:32.456Z,74.70
2023-05-23T07:45:01.105Z,76.00
2023-05-23T07:47:29.234Z,75.10
2023-05-23T07:49:57.344Z,74.80
2023-05-23T07:52:25.418Z,73.30
2023-05-23T07:54:53.480Z,71.10
2023-05-23T07:57:21.750Z,68.20
2023-05-23T07:59:51.405Z,71.90
2023-05-23T08:02:19.868Z,72.60
2023-05-23T08:04:48.947Z,71.90
2023-05-23T08:07:19.289Z,72.60
2023-05-23T08:09:47.825Z,73.30
2023-05-23T08:12:15.953Z,72.40
2023-05-23T08:14:51.418Z,68.20
2023-05-23T08:17:22.096Z,69.90
2023-05-23T08:19:50.226Z,69.70
2023-05-23T08:22:18.293Z,67.30
2023-05-23T08:24:46.411Z,67.30
2023-05-23T08:27:14.504Z,62.60
2023-05-23T08:29:42.954Z,60.70
2023-05-23T08:32:11.251Z,59.70
2023-05-23T08:34:41.864Z,59.50
2023-05-23T08:37:10.060Z,61.40
2023-05-23T08:39:38.128Z,79.20
2023-05-23T08:44:35.150Z,64.10
2023-05-23T08:47:06.539Z,59.30
2023-05-23T08:49:35.030Z,59.80
2023-05-23T08:52:05.009Z,62.50
2023-05-23T08:54:34.035Z,61.90
2023-05-23T08:57:02.915Z,60.30
2023-05-23T08:59:33.040Z,66.00
2023-05-23T09:02:01.833Z,64.80
2023-05-23T09:04:32.352Z,57.60
2023-05-23T09:07:01.361Z,61.60
2023-05-23T09:09:31.109Z,60.30
2023-05-23T09:12:01.008Z,57.20
2023-05-23T09:14:30.441Z,54.30
2023-05-23T09:17:04.012Z,61.90
2023-05-23T09:19:33.447Z,65.50
2023-05-23T09:22:04.005Z,61.60
2023-05-23T09:24:37.168Z,63.50
2023-05-23T09:27:07.788Z,62.80
2023-05-23T09:29:38.966Z,61.80
2023-05-23T09:32:14.389Z,61.80
2023-05-23T09:34:43.193Z,60.60
2023-05-23T09:37:18.281Z,61.90
2023-05-23T09:39:49.648Z,60.90
2023-05-23T09:42:22.946Z,55.60
2023-05-23T09:44:51.310Z,49.80
2023-05-23T09:47:19.678Z,50.70
2023-05-23T09:49:48.903Z,49.30
2023-05-23T09:52:17.053Z,53.90
2023-05-23T09:54:46.588Z,50.30
2023-05-23T09:57:17.273Z,44.50
2023-05-23T09:59:53.652Z,46.60
2023-05-23T10:02:48.271Z,44.20
2023-05-23T10:05:31.664Z,44.10
2023-05-23T10:08:02.530Z,43.00
2023-05-23T10:10:33.809Z,40.30
2023-05-23T10:13:06.791Z,41.40
2023-05-23T10:15:40.380Z,38.20
2023-05-23T10:18:13.934Z,40.70
2023-05-23T10:20:48.659Z,38.30
2023-05-23T10:23:17.452Z,36.60
2023-05-23T10:25:46.531Z,37.90
2023-05-23T10:28:16.804Z,41.50
2023-05-23T10:30:45.885Z,34.70
2023-05-23T10:33:17.192Z,32.90
2023-05-23T10:35:54.814Z,32.80
2023-05-23T10:38:31.358Z,33.00
2023-05-23T10:41:08.037Z,33.10
2023-05-23T10:43:45.776Z,35.40
2023-05-23T10:46:14.912Z,35.20
2023-05-23T10:48:44.537Z,38.10
2023-05-23T10:51:14.555Z,33.40
2023-05-23T10:53:44.887Z,33.40
2023-05-23T10:58:54.408Z,28.10
2023-05-23T11:01:22.864Z,30.00
2023-05-23T11:03:54.694Z,28.50
2023-05-23T11:06:32.039Z,28.30
2023-05-23T11:09:07.315Z,27.40
2023-05-23T11:12:02.682Z,34.10
2023-05-23T11:14:54.591Z,33.20
2023-05-23T11:17:33.930Z,37.60
2023-05-23T11:20:06.981Z,39.00
2023-05-23T11:22:35.820Z,43.60
2023-05-23T11:25:08.573Z,52.50
2023-05-23T11:27:38.389Z,49.80
2023-05-23T11:30:10.042Z,41.60
2023-05-23T11:32:38.533Z,32.70
2023-05-23T11:35:08.765Z,34.00
2023-05-23T11:37:39.086Z,37.20
2023-05-23T11:40:26.510Z,50.10
2023-05-23T11:42:55.161Z,50.60
2023-05-23T11:45:25.729Z,50.10
2023-05-23T11:47:54.337Z,54.00
2023-05-23T11:50:22.788Z,53.10
2023-05-23T11:52:52.423Z,50.50
2023-05-23T11:55:21.234Z,53.90
2023-05-23T11:57:49.832Z,47.40
2023-05-23T12:00:18.902Z,51.10
2023-05-23T12:02:49.173Z,48.00
2023-05-23T12:05:17.520Z,45.10
2023-05-23T12:07:46.992Z,44.50
2023-05-23T12:10:16.708Z,43.10
2023-05-23T12:12:45.741Z,42.90
2023-05-23T12:15:14.471Z,43.10
2023-05-23T12:17:46.333Z,42.40
2023-05-23T12:20:16.249Z,41.20
2023-05-23T12:22:44.475Z,38.50
2023-05-23T12:25:12.759Z,40.70
2023-05-23T12:27:44.026Z,39.30
2023-05-23T12:30:14.747Z,38.80
2023-05-23T12:32:43.987Z,39.30
2023-05-23T12:35:15.974Z,36.60
2023-05-23T12:37:46.973Z,39.50
2023-05-23T12:40:16.418Z,36.90
2023-05-23T12:42:54.895Z,41.80
2023-05-23T12:45:24.845Z,39.50
2023-05-23T12:47:54.490Z,42.70
2023-05-23T12:50:24.211Z,41.30
2023-05-23T12:52:52.318Z,38.70
2023-05-23T12:55:20.545Z,39.40
2023-05-23T12:57:48.656Z,38.70
2023-05-23T13:02:46.258Z,45.80
2023-05-23T13:05:14.447Z,43.40
2023-05-23T13:07:44.174Z,43.80
2023-05-23T13:10:12.757Z,42.20
2023-05-23T13:12:40.871Z,44.80
2023-05-23T13:15:10.223Z,42.90
2023-05-23T13:17:38.426Z,35.90
2023-05-23T13:20:09.405Z,37.50
2023-05-23T13:22:37.701Z,39.80
2023-05-23T13:25:08.560Z,38.80
2023-05-23T13:27:36.675Z,37.30
2023-05-23T13:30:05.469Z,39.20
2023-05-23T13:32:33.730Z,38.30
2023-05-23T13:35:01.938Z,36.90
2023-05-23T13:37:30.006Z,37.90
2023-05-23T13:39:58.103Z,36.50
2023-05-23T13:42:27.565Z,35.40
2023-05-23T13:44:55.717Z,36.30
2023-05-23T13:47:23.990Z,37.20
2023-05-23T13:49:52.152Z,37.60
2023-05-23T13:52:20.753Z,37.80
2023-05-23T13:54:48.846Z,34.90
2023-05-23T13:57:17.010Z,36.40
2023-05-23T13:59:46.485Z,37.50
2023-05-23T14:02:14.710Z,39.30
2023-05-23T14:07:11.331Z,25.90
2023-05-23T14:09:39.434Z,33.10
2023-05-23T14:12:08.041Z,32.40
2023-05-23T14:14:36.130Z,34.10
2023-05-23T14:17:05.766Z,38.80
2023-05-23T14:19:34.037Z,40.50
2023-05-23T14:22:02.193Z,42.50
2023-05-23T14:24:30.259Z,42.90
2023-05-23T14:26:58.369Z,43.50
2023-05-23T14:29:26.438Z,44.60
2023-05-23T14:31:54.764Z,43.40
2023-05-23T14:34:24.331Z,43.60
2023-05-23T14:36:52.449Z,42.50
2023-05-23T14:39:20.594Z,42.20
2023-05-23T14:41:48.917Z,40.90
2023-05-23T14:44:17.217Z,40.10
2023-05-23T14:46:48.513Z,40.00
2023-05-23T14:49:16.787Z,38.90
2023-05-23T14:51:50.962Z,38.80
2023-05-23T14:54:19.958Z,38.80
2023-05-23T14:56:49.420Z,37.80
2023-05-23T14:59:19.391Z,37.50
2023-05-23T15:01:47.548Z,37.70
2023-05-23T15:04:15.723Z,35.20
2023-05-23T15:06:47.182Z,35.30
2023-05-23T15:09:15.310Z,44.20
2023-05-23T15:11:45.150Z,43.30
2023-05-23T15:14:13.253Z,38.50
2023-05-23T15:16:44.406Z,38.80
2023-05-23T15:19:12.953Z,29.70
2023-05-23T15:21:49.646Z,33.40
2023-05-23T15:24:20.734Z,32.10
2023-05-23T15:26:48.901Z,33.50
2023-05-23T15:29:18.188Z,32.60
2023-05-23T15:31:46.317Z,32.80
2023-05-23T15:34:14.449Z,36.40
2023-05-23T15:36:42.587Z,36.30
2023-05-23T15:39:12.527Z,37.00
2023-05-23T15:41:41.978Z,36.50
2023-05-23T15:44:12.586Z,37.40
2023-05-23T15:46:42.330Z,36.70
2023-05-23T15:49:24.517Z,37.10
2023-05-23T15:51:54.215Z,38.20
2023-05-23T15:54:22.469Z,39.00
2023-05-23T15:56:51.978Z,39.00
2023-05-23T15:59:20.113Z,39.40
2023-05-23T16:01:48.275Z,40.30
2023-05-23T16:04:16.604Z,39.40
2023-05-23T16:06:44.897Z,37.00
2023-05-23T16:09:12.995Z,34.60
2023-05-23T16:11:41.091Z,34.70
2023-05-23T16:14:10.603Z,32.90
2023-05-23T16:16:38.757Z,30.30
2023-05-23T16:19:06.970Z,43.60
2023-05-23T16:21:35.097Z,43.20
2023-05-23T16:24:03.214Z,38.20
2023-05-23T16:26:31.324Z,41.60
2023-05-23T16:28:59.506Z,41.60
2023-05-23T16:31:30.253Z,37.80
2023-05-23T16:33:58.668Z,36.50
2023-05-23T16:36:26.891Z,35.80
2023-05-23T16:38:55.720Z,32.30
2023-05-23T16:41:23.983Z,36.50
2023-05-23T16:43:52.211Z,37.70
2023-05-23T16:46:22.381Z,36.80
2023-05-23T16:48:52.014Z,39.00
2023-05-23T16:51:20.175Z,36.20
2023-05-23T16:53:48.541Z,37.10
2023-05-23T16:56:16.736Z,36.70
2023-05-23T16:58:44.815Z,38.00
2023-05-23T17:01:13.866Z,38.60
2023-05-23T17:03:42.210Z,39.30
2023-05-23T17:06:11.940Z,32.10
2023-05-23T17:08:40.031Z,34.10
2023-05-23T17:11:08.165Z,38.70
2023-05-23T17:13:36.252Z,36.70
2023-05-23T17:16:05.509Z,40.00
2023-05-23T17:18:33.638Z,43.10
2023-05-23T17:21:01.879Z,40.10
2023-05-23T17:23:31.315Z,40.60
2023-05-23T17:25:59.508Z,56.40
2023-05-23T17:28:27.565Z,39.10
2023-05-23T17:30:55.648Z,41.10
2023-05-23T17:33:23.743Z,42.90
2023-05-23T17:35:52.297Z,48.00
2023-05-23T17:38:20.493Z,56.90
2023-05-23T17:40:50.354Z,58.00
2023-05-23T17:43:18.501Z,51.40
2023-05-23T17:45:46.886Z,51.60
2023-05-23T17:48:16.342Z,52.00
2023-05-23T17:50:45.380Z,52.50
2023-05-23T17:53:14.627Z,53.60
2023-05-23T17:55:42.704Z,54.50
2023-05-23T17:58:12.237Z,54.30
2023-05-23T18:00:40.529Z,54.20
2023-05-23T18:03:08.814Z,55.00
2023-05-23T18:05:37.007Z,55.50
2023-05-23T18:08:05.310Z,56.00
2023-05-23T18:10:33.456Z,56.10
2023-05-23T18:13:01.501Z,56.00
2023-05-23T18:15:30.996Z,56.50
2023-05-23T18:17:59.179Z,57.80
2023-05-23T18:20:27.347Z,58.10
2023-05-23T18:22:56.662Z,57.70
2023-05-23T18:25:27.603Z,58.20
2023-05-23T18:27:56.501Z,56.60
2023-05-23T18:30:24.965Z,56.40
2023-05-23T18:32:54.655Z,57.10
2023-05-23T18:35:23.156Z,57.30
2023-05-23T18:37:51.279Z,57.00
2023-05-23T18:40:21.710Z,56.60
2023-05-23T18:42:50.326Z,57.70
2023-05-23T18:45:18.490Z,58.10
2023-05-23T18:47:46.643Z,59.20
2023-05-23T18:50:16.103Z,58.90
2023-05-23T18:52:44.430Z,61.00
2023-05-23T18:55:12.831Z,61.10
2023-05-23T18:57:40.970Z,60.10
2023-05-23T19:00:10.294Z,62.90
2023-05-23T19:02:39.578Z,62.40
2023-05-23T19:05:08.489Z,63.20
2023-05-23T19:07:37.985Z,62.80
2023-05-23T19:10:06.775Z,64.10
2023-05-23T19:12:34.925Z,65.20
2023-05-23T19:15:03.754Z,66.90
2023-05-23T19:20:00.771Z,64.20
2023-05-23T19:22:39.072Z,69.60
2023-05-23T19:25:18.406Z,69.30
2023-05-23T19:27:46.533Z,69.50
2023-05-23T19:30:14.822Z,70.50
2023-05-23T19:32:42.934Z,69.30
2023-05-23T19:35:12.004Z,71.10
2023-05-23T19:37:42.152Z,71.30
2023-05-23T19:40:11.220Z,73.20
2023-05-23T19:42:40.664Z,73.10
2023-05-23T19:45:09.836Z,73.60
2023-05-23T19:47:37.974Z,71.70
2023-05-23T19:50:07.261Z,73.80
2023-05-23T19:52:35.450Z,72.50
2023-05-23T19:55:04.082Z,74.90
2023-05-23T20:00:02.641Z,66.60
2023-05-23T20:02:30.759Z,70.00
2023-05-23T20:04:58.866Z,69.40
2023-05-23T20:07:26.950Z,88.90
2023-05-23T20:09:56.536Z,70.00
2023-05-23T20:12:24.597Z,69.70
2023-05-23T20:14:52.714Z,71.30
2023-05-23T20:17:22.160Z,89.30
2023-05-23T20:19:50.320Z,72.30
2023-05-23T20:22:18.737Z,72.40
2023-05-23T20:24:46.912Z,70.00
2023-05-23T20:27:15.218Z,90.00
2023-05-23T20:29:43.285Z,72.00
2023-05-23T20:32:11.372Z,72.20
2023-05-23T20:34:40.817Z,71.50
2023-05-23T20:37:08.944Z,71.70
2023-05-23T20:39:37.548Z,71.10
2023-05-23T20:42:06.290Z,71.10
2023-05-23T20:44:37.745Z,70.70
2023-05-23T20:47:06.781Z,70.30
2023-05-23T20:49:35.227Z,71.40
2023-05-23T20:52:06.101Z,71.70
2023-05-23T20:54:35.381Z,72.30
2023-05-23T20:57:03.807Z,71.20
2023-05-23T20:59:31.942Z,70.00
2023-05-23T21:02:00.185Z,71.30
2023-05-23T21:04:28.322Z,71.40
2023-05-23T21:06:56.395Z,71.10
2023-05-23T21:09:25.870Z,70.80
2023-05-23T21:11:53.957Z,70.00
2023-05-23T21:14:22.067Z,70.10
2023-05-23T21:16:50.207Z,69.50
2023-05-23T21:19:18.436Z,69.00
2023-05-23T21:21:46.573Z,69.40
2023-05-23T21:24:15.223Z,69.50
2023-05-23T21:26:44.699Z,68.40
2023-05-23T21:29:12.841Z,68.60
2023-05-23T21:31:42.066Z,68.40
2023-05-23T21:34:23.057Z,67.60
2023-05-23T21:36:52.606Z,66.00
2023-05-23T21:39:21.318Z,66.60
2023-05-23T21:41:51.085Z,66.20
2023-05-23T21:44:20.098Z,65.70
2023-05-23T21:46:48.333Z,65.50
2023-05-23T21:49:16.787Z,65.60
2023-05-23T21:51:44.944Z,66.20
2023-05-23T21:54:13.126Z,65.20
2023-05-23T21:56:41.220Z,66.50
2023-05-23T21:59:10.720Z,65.70
2023-05-23T22:01:38.870Z,66.30
2023-05-23T22:04:07.213Z,66.40
2023-05-23T22:06:35.325Z,66.20
2023-05-23T22:09:03.611Z,66.10
2023-05-23T22:11:34.084Z,66.40
2023-05-23T22:14:02.724Z,66.40
2023-05-23T22:16:33.619Z,66.50
2023-05-23T22:19:02.119Z,66.00
2023-05-23T22:21:30.677Z,66.70
2023-05-23T22:23:59.010Z,65.90
2023-05-23T22:26:27.453Z,64.30
2023-05-23T22:28:55.752Z,67.20
2023-05-23T22:31:24.447Z,67.00
2023-05-23T22:33:54.000Z,66.40
2023-05-23T22:36:23.264Z,67.40
2023-05-23T22:38:51.393Z,67.00
2023-05-23T22:41:19.740Z,67.40
2023-05-23T22:43:48.133Z,66.10
2023-05-23T22:46:16.248Z,65.90
2023-05-23T22:48:45.135Z,66.90
2023-05-23T22:51:14.837Z,67.80
2023-05-23T22:53:43.366Z,67.90
2023-05-23T22:56:11.501Z,67.90
2023-05-23T22:58:39.623Z,69.10
2023-05-23T23:01:07.766Z,68.90
2023-05-23T23:03:36.033Z,66.80
2023-05-23T23:06:06.038Z,69.10
2023-05-23T23:08:35.688Z,69.10
2023-05-23T23:11:03.797Z,71.50
2023-05-23T23:13:31.908Z,70.50
2023-05-23T23:15:59.992Z,72.40
2023-05-23T23:18:28.118Z,70.30
2023-05-23T23:20:56.297Z,71.00
2023-05-23T23:23:24.432Z,70.70
2023-05-23T23:25:53.990Z,72.40
2023-05-23T23:28:22.162Z,72.40
2023-05-23T23:30:50.341Z,72.50
2023-05-23T23:33:18.400Z,71.70
2023-05-23T23:35:48.588Z,72.80
2023-05-23T23:38:16.915Z,72.90
2023-05-23T23:40:45.684Z,73.20
2023-05-23T23:43:15.405Z,74.40
2023-05-23T23:45:43.558Z,74.40
2023-05-23T23:48:13.846Z,73.10
2023-05-23T23:50:42.187Z,73.80
2023-05-23T23:53:10.528Z,72.50
2023-05-23T23:55:38.569Z,72.80
2023-05-23T23:58:06.666Z,73.80
